Time;durP1;ratioP1;P1;durP2;ratioP2;P2;SDS_P1;SDS_P2;PMS_P1;PMS_P2;Temp;Humidity;BMP_temperature;BMP_pressure;BME280_temperature;BME280_humidity;BME280_pressure;Samples;Min_cycle;Max_cycle;Signal;HPM_P1;HPM_P2
2021/07/13 00:01:00;;;;;;;41.13;26.27;;;;;;;16.57;88.56;101119.59;5071789;28;20025;-61
2021/07/13 00:03:25;;;;;;;36.65;24.95;;;;;;;16.52;89.05;101118.09;5056894;28;20028;-60
2021/07/13 00:05:51;;;;;;;41.38;26.08;;;;;;;16.51;89.40;101119.03;5055534;28;20083;-60
2021/07/13 00:08:16;;;;;;;37.85;25.38;;;;;;;16.53;89.36;101129.63;5055536;28;20431;-60
2021/07/13 00:10:43;;;;;;;34.92;24.63;;;;;;;16.53;88.71;101124.28;5055867;28;20500;-60
2021/07/13 00:13:08;;;;;;;38.47;26.55;;;;;;;16.52;88.55;101136.81;5057671;28;20063;-60
2021/07/13 00:15:40;;;;;;;37.60;25.77;;;;;;;16.52;89.29;101138.59;5055817;28;20486;-61
2021/07/13 00:18:06;;;;;;;41.22;26.70;;;;;;;16.47;88.74;101140.72;5055635;28;20057;-61
2021/07/13 00:20:32;;;;;;;37.78;25.42;;;;;;;16.46;88.55;101147.00;5055321;28;20025;-60
2021/07/13 00:22:58;;;;;;;41.47;26.98;;;;;;;16.44;89.07;101146.28;5055988;28;20033;-61
2021/07/13 00:25:28;;;;;;;44.00;28.27;;;;;;;16.41;89.36;101147.34;5056442;28;20033;-60
2021/07/13 00:27:55;;;;;;;42.92;27.75;;;;;;;16.38;88.84;101148.38;5075052;28;20036;-61
2021/07/13 00:30:22;;;;;;;41.90;26.17;;;;;;;16.36;88.67;101146.78;5075451;28;20520;-62
2021/07/13 00:32:48;;;;;;;42.97;27.48;;;;;;;16.30;88.78;101148.00;5071184;28;20056;-64
2021/07/13 00:35:14;;;;;;;42.85;27.30;;;;;;;16.25;89.15;101147.44;5075019;28;20402;-63
2021/07/13 00:37:42;;;;;;;39.90;26.42;;;;;;;16.23;88.64;101138.69;5075010;28;20035;-62
2021/07/13 00:40:08;;;;;;;41.78;27.40;;;;;;;16.23;88.97;101146.69;5075405;28;20051;-64
2021/07/13 00:42:34;;;;;;;47.92;29.38;;;;;;;16.23;89.14;101138.69;5072325;28;20032;-64
2021/07/13 00:44:59;;;;;;;44.20;27.92;;;;;;;16.21;89.20;101135.25;5074409;28;20388;-63
2021/07/13 00:47:26;;;;;;;35.60;24.83;;;;;;;16.18;89.03;101132.78;5075202;28;20028;-64
2021/07/13 00:49:52;;;;;;;48.70;29.90;;;;;;;16.16;89.16;101138.22;5074279;28;20032;-63
2021/07/13 00:52:18;;;;;;;49.55;31.23;;;;;;;16.12;89.62;101146.53;5074672;28;20529;-63
2021/07/13 00:54:47;;;;;;;53.03;31.45;;;;;;;16.13;89.54;101145.56;5071277;28;20028;-65
2021/07/13 00:57:13;;;;;;;50.03;30.23;;;;;;;16.13;89.64;101149.09;5074902;28;20029;-65
2021/07/13 00:59:40;;;;;;;49.20;29.55;;;;;;;16.13;89.58;101148.25;5074930;28;20025;-65
2021/07/13 01:02:10;;;;;;;55.65;31.45;;;;;;;16.12;90.12;101144.69;5075077;28;20074;-64
2021/07/13 01:04:38;;;;;;;51.88;31.92;;;;;;;16.09;89.61;101142.22;5072987;28;20371;-65
2021/07/13 01:07:17;;;;;;;44.88;28.30;;;;;;;16.08;89.64;101145.84;5072614;28;20109;-65
2021/07/13 01:10:06;;;;;;;50.15;29.48;;;;;;;16.09;89.36;101152.91;5074394;28;20050;-65
2021/07/13 01:12:47;;;;;;;43.72;28.08;;;;;;;16.07;89.41;101154.81;5074706;28;20025;-63
2021/07/13 01:15:16;;;;;;;42.28;27.52;;;;;;;16.03;89.21;101150.63;5071042;28;20039;-65
2021/07/13 01:17:55;;;;;;;48.97;30.90;;;;;;;15.97;89.24;101153.69;5048463;28;20033;-62
2021/07/13 01:20:35;;;;;;;49.10;29.80;;;;;;;15.94;89.85;101149.38;5054573;28;20121;-64
2021/07/13 01:23:17;;;;;;;48.85;30.33;;;;;;;15.91;89.75;101146.94;5054051;28;20507;-64
2021/07/13 01:26:02;;;;;;;;;;;;;;;15.89;89.95;101148.81;5056730;28;20029;-64
2021/07/13 01:28:32;;;;;;;43.15;27.70;;;;;;;15.91;89.48;101154.06;5054561;28;19974;-64
2021/07/13 01:31:02;;;;;;;40.50;26.63;;;;;;;15.84;89.26;101143.78;5054224;28;20025;-65
2021/07/13 01:33:30;;;;;;;41.47;27.58;;;;;;;15.83;89.49;101144.72;5054122;28;20032;-64
2021/07/13 01:36:20;;;;;;;49.50;30.55;;;;;;;15.81;89.64;101149.28;5056415;28;20106;-64
2021/07/13 01:38:47;;;;;;;51.72;30.23;;;;;;;15.80;89.98;101152.03;5011970;28;20056;-64
2021/07/13 01:41:18;;;;;;;59.85;34.30;;;;;;;15.83;90.18;101150.06;5012297;28;20453;-64
2021/07/13 01:43:45;;;;;;;46.55;29.17;;;;;;;15.87;89.98;101145.41;5012132;28;20078;-65
2021/07/13 01:46:12;;;;;;;41.75;27.77;;;;;;;15.83;89.92;101139.38;5013995;28;20033;-65
2021/07/13 01:48:38;;;;;;;55.50;31.88;;;;;;;15.83;89.66;101135.84;5013254;28;20057;-60
2021/07/13 01:51:05;;;;;;;58.28;33.22;;;;;;;15.85;90.23;101142.81;5011856;28;20037;-59
2021/07/13 01:53:33;;;;;;;46.53;27.80;;;;;;;15.87;89.43;101138.25;5011755;28;20026;-60
2021/07/13 01:56:01;;;;;;;41.83;27.33;;;;;;;15.87;89.45;101140.06;4996747;28;20525;-60
2021/07/13 01:58:28;;;;;;;46.30;28.15;;;;;;;15.85;89.41;101145.47;5012831;28;20034;-60
2021/07/13 02:00:57;;;;;;;48.45;29.45;;;;;;;15.86;89.32;101149.88;5010965;28;20109;-60
2021/07/13 02:03:24;;;;;;;78.97;39.45;;;;;;;15.88;89.84;101152.44;5011749;28;20081;-60
2021/07/13 02:05:50;;;;;;;65.13;34.72;;;;;;;15.91;90.22;101146.94;5011527;28;20029;-60
2021/07/13 02:08:18;;;;;;;56.45;31.50;;;;;;;15.97;90.19;101151.88;5003850;28;20163;-60
2021/07/13 02:10:44;;;;;;;59.95;35.05;;;;;;;16.05;90.14;101149.56;5011425;28;20026;-61
2021/07/13 02:13:10;;;;;;;88.20;44.70;;;;;;;16.17;90.65;101157.78;5011679;28;20648;-61
2021/07/13 02:15:37;;;;;;;83.57;42.17;;;;;;;16.30;90.48;101155.19;5030424;28;20041;-61
2021/07/13 02:18:03;;;;;;;95.00;46.72;;;;;;;16.40;90.63;101153.63;5055328;28;20032;-60
2021/07/13 02:20:29;;;;;;;76.60;41.45;;;;;;;16.48;90.12;101150.47;5052950;28;20017;-61
2021/07/13 02:22:55;;;;;;;72.43;39.67;;;;;;;16.59;89.90;101149.78;5053568;28;20044;-61
2021/07/13 02:25:20;;;;;;;72.57;39.60;;;;;;;16.66;89.71;101154.63;5053169;28;20460;-61
2021/07/13 02:27:54;;;;;;;71.82;40.30;;;;;;;16.69;89.51;101143.72;5054116;28;20115;-61
2021/07/13 02:30:20;;;;;;;77.22;41.13;;;;;;;16.80;89.97;101142.13;5054109;28;20051;-61
2021/07/13 02:32:50;;;;;;;72.40;41.97;;;;;;;16.86;89.51;101141.75;5053114;28;20021;-62
2021/07/13 02:35:18;;;;;;;72.30;40.30;;;;;;;16.94;89.55;101138.59;5052662;28;20055;-62
2021/07/13 02:37:46;;;;;;;98.80;49.55;;;;;;;17.05;90.19;101136.03;5054026;28;20036;-63
2021/07/13 02:40:13;;;;;;;97.13;48.83;;;;;;;17.14;90.22;101132.75;5053841;28;20098;-63
2021/07/13 02:42:43;;;;;;;95.90;48.38;;;;;;;17.23;89.97;101135.75;5053134;28;20202;-62
2021/07/13 02:45:09;;;;;;;91.97;48.03;;;;;;;17.28;90.03;101134.47;5053198;28;20043;-62
2021/07/13 02:47:35;;;;;;;84.13;44.58;;;;;;;17.30;89.75;101126.34;5052847;28;20024;-64
2021/07/13 02:50:03;;;;;;;89.10;46.72;;;;;;;17.32;89.43;101116.38;5054526;28;20024;-64
2021/07/13 02:52:32;;;;;;;80.10;42.28;;;;;;;17.37;89.64;101122.28;5052883;28;20017;-63
2021/07/13 02:55:01;;;;;;;72.05;39.88;;;;;;;17.42;89.41;101128.19;5066721;28;20078;-63
2021/07/13 02:57:27;;;;;;;99.63;49.92;;;;;;;17.43;89.84;101121.88;5072611;28;20028;-62
2021/07/13 02:59:54;;;;;;;117.45;52.65;;;;;;;17.46;89.82;101120.78;5072678;28;20024;-61
2021/07/13 03:02:25;;;;;;;140.20;57.80;;;;;;;17.54;90.25;101123.78;5070919;28;20040;-63
2021/07/13 03:04:51;;;;;;;150.50;59.97;;;;;;;17.56;90.46;101115.63;5072284;28;20044;-64
2021/07/13 03:07:19;;;;;;;166.15;62.25;;;;;;;17.60;90.51;101127.88;5072440;28;20102;-63
2021/07/13 03:09:46;;;;;;;194.32;67.50;;;;;;;17.61;90.76;101125.06;5072609;28;20020;-64
2021/07/13 03:12:11;;;;;;;193.23;69.38;;;;;;;17.64;90.87;101116.81;5070311;28;20039;-64
2021/07/13 03:14:39;;;;;;;225.52;73.63;;;;;;;17.66;90.96;101128.28;5072293;28;20025;-63
2021/07/13 03:17:07;;;;;;;223.57;72.65;;;;;;;17.67;90.97;101121.97;5070725;28;20028;-63
2021/07/13 03:19:33;;;;;;;198.60;70.68;;;;;;;17.72;91.11;101126.13;5072401;28;20468;-63
2021/07/13 03:22:00;;;;;;;171.48;64.70;;;;;;;17.77;90.75;101124.00;5070801;28;20040;-62
2021/07/13 03:24:26;;;;;;;195.98;70.80;;;;;;;17.79;90.48;101124.75;5072520;28;20025;-64
2021/07/13 03:26:52;;;;;;;205.07;73.70;;;;;;;17.79;90.72;101120.25;5070720;28;20028;-64
2021/07/13 03:29:17;;;;;;;206.20;74.50;;;;;;;17.77;90.60;101118.63;5071677;28;20349;-64
2021/07/13 03:31:44;;;;;;;220.18;73.20;;;;;;;17.73;90.79;101122.50;5072092;28;20101;-64
2021/07/13 03:34:11;;;;;;;215.52;74.25;;;;;;;17.73;90.71;101114.47;5070402;28;20063;-63
2021/07/13 03:36:37;;;;;;;206.35;75.20;;;;;;;17.72;90.84;101121.63;5071972;28;20067;-63
2021/07/13 03:39:05;;;;;;;177.52;64.20;;;;;;;17.73;90.81;101127.84;5072436;28;20020;-64
2021/07/13 03:41:30;;;;;;;187.13;69.68;;;;;;;17.71;90.50;101127.97;5072034;28;20108;-63
2021/07/13 03:43:59;;;;;;;200.13;72.47;;;;;;;17.70;90.91;101134.28;5070529;28;20048;-64
2021/07/13 03:46:24;;;;;;;218.13;74.53;;;;;;;17.67;90.84;101131.81;5072023;28;20100;-64
2021/07/13 03:48:51;;;;;;;214.38;75.38;;;;;;;17.62;90.80;101126.78;5070500;28;20128;-64
2021/07/13 03:51:41;;;;;;;175.48;63.80;;;;;;;17.61;90.71;101135.78;5072060;28;20020;-62
2021/07/13 03:54:08;;;;;;;209.32;72.93;;;;;;;17.59;90.96;101126.16;5065262;28;20123;-64
2021/07/13 03:56:33;;;;;;;217.93;75.40;;;;;;;17.62;91.09;101125.91;5071968;28;20017;-64
2021/07/13 03:58:59;;;;;;;234.27;79.35;;;;;;;17.66;91.08;101127.41;5069835;28;20534;-60
2021/07/13 04:01:25;;;;;;;220.45;76.10;;;;;;;17.69;91.17;101133.41;5071620;28;20119;-64
2021/07/13 04:03:50;;;;;;;203.30;72.30;;;;;;;17.74;91.35;101134.94;5072213;28;20096;-60
2021/07/13 04:06:15;;;;;;;201.95;73.07;;;;;;;17.77;90.91;101137.38;5067876;28;20428;-60
2021/07/13 04:08:41;;;;;;;188.30;72.75;;;;;;;17.78;91.00;101128.38;5070555;28;20080;-60
2021/07/13 04:11:06;;;;;;;187.00;67.18;;;;;;;17.81;91.00;101126.34;5071573;28;20492;-58
2021/07/13 04:13:31;;;;;;;192.00;74.00;;;;;;;17.84;90.75;101133.31;5071553;28;20054;-60
2021/07/13 04:15:57;;;;;;;171.80;65.50;;;;;;;17.88;90.61;101133.94;5070019;28;20476;-61
2021/07/13 04:18:22;;;;;;;173.88;69.82;;;;;;;17.92;90.63;101144.34;5070554;28;20059;-60
2021/07/13 04:20:47;;;;;;;175.77;69.20;;;;;;;17.95;90.58;101143.28;5071841;28;20051;-61
2021/07/13 04:23:13;;;;;;;172.88;69.68;;;;;;;17.98;90.57;101148.41;5071843;28;20033;-64
2021/07/13 04:25:38;;;;;;;156.50;65.32;;;;;;;18.05;90.42;101146.19;5073913;28;20021;-65
2021/07/13 04:28:04;;;;;;;152.55;65.05;;;;;;;18.05;90.15;101140.81;5074379;28;20460;-62
2021/07/13 04:30:29;;;;;;;150.20;62.83;;;;;;;18.07;90.22;101154.94;5073553;28;20035;-64
2021/07/13 04:32:54;;;;;;;154.70;67.28;;;;;;;18.10;90.26;101155.59;5074175;28;20029;-63
2021/07/13 04:35:20;;;;;;;140.00;61.83;;;;;;;18.10;89.78;101168.13;5071074;28;20028;-62
2021/07/13 04:37:45;;;;;;;132.93;60.78;;;;;;;18.13;89.89;101163.41;5054632;28;20052;-65
2021/07/13 04:40:12;;;;;;;135.73;61.22;;;;;;;18.12;89.54;101158.16;5073806;28;20052;-64
2021/07/13 04:42:38;;;;;;;131.23;59.80;;;;;;;18.14;89.33;101164.25;5075434;28;20025;-63
2021/07/13 04:45:03;;;;;;;129.95;59.38;;;;;;;18.15;89.81;101161.47;5075235;28;20020;-62
2021/07/13 04:47:29;;;;;;;131.50;60.08;;;;;;;18.15;89.43;101166.00;5073322;28;20032;-62
2021/07/13 04:49:54;;;;;;;130.25;58.80;;;;;;;18.16;89.61;101160.50;5072633;28;20090;-60
2021/07/13 04:52:19;;;;;;;126.47;57.08;;;;;;;18.17;89.58;101167.59;5075401;28;20032;-62
2021/07/13 04:54:45;;;;;;;116.75;55.38;;;;;;;18.23;89.59;101171.63;5075031;28;20484;-63
2021/07/13 04:57:11;;;;;;;105.18;49.40;;;;;;;18.27;89.42;101178.47;5074859;28;20028;-63
2021/07/13 04:59:36;;;;;;;115.82;55.92;;;;;;;18.28;89.08;101169.47;5073129;28;20032;-61
2021/07/13 05:02:02;;;;;;;104.25;51.58;;;;;;;18.26;88.83;101173.25;5073459;28;20024;-63
2021/07/13 05:04:28;;;;;;;103.72;51.33;;;;;;;18.25;88.65;101172.41;5073788;28;20383;-63
2021/07/13 05:06:53;;;;;;;95.88;46.70;;;;;;;18.29;89.01;101173.88;5074495;28;20131;-63
2021/07/13 05:09:19;;;;;;;88.43;44.95;;;;;;;18.33;88.49;101169.16;5073023;28;20039;-64
2021/07/13 05:11:44;;;;;;;89.97;49.10;;;;;;;18.31;88.35;101166.59;5072326;28;20047;-62
2021/07/13 05:14:09;;;;;;;91.68;49.00;;;;;;;18.28;87.81;101179.34;5074579;28;20116;-63
2021/07/13 05:16:35;;;;;;;85.53;46.42;;;;;;;18.32;88.05;101187.06;5074731;28;20111;-61
2021/07/13 05:19:01;;;;;;;89.10;47.30;;;;;;;18.36;87.74;101187.69;5054073;28;20122;-63
2021/07/13 05:21:27;;;;;;;87.85;47.95;;;;;;;18.35;87.65;101191.38;5072894;28;20124;-63
2021/07/13 05:23:52;;;;;;;91.07;48.83;;;;;;;18.40;87.67;101191.00;5066151;28;20369;-62
2021/07/13 05:26:17;;;;;;;87.10;47.88;;;;;;;18.42;87.46;101186.41;5054159;28;20461;-63
2021/07/13 05:28:43;;;;;;;88.95;46.35;;;;;;;18.41;87.00;101188.22;5054442;28;20114;-64
2021/07/13 05:31:08;;;;;;;85.68;46.17;;;;;;;18.40;87.08;101196.38;5071002;28;20039;-61
2021/07/13 05:33:34;;;;;;;82.28;46.25;;;;;;;18.42;87.42;101191.78;5071279;28;20139;-62
2021/07/13 05:35:59;;;;;;;91.15;45.95;;;;;;;18.42;86.67;101189.94;5068385;28;20044;-64
2021/07/13 05:38:24;;;;;;;74.88;43.90;;;;;;;18.44;86.66;101192.50;5074254;28;20064;-64
2021/07/13 05:40:50;;;;;;;81.45;44.55;;;;;;;18.44;86.56;101193.38;5074362;28;20099;-61
2021/07/13 05:43:15;;;;;;;91.38;46.35;;;;;;;18.40;86.50;101191.88;5073424;28;20492;-62
2021/07/13 05:45:44;;;;;;;81.63;45.17;;;;;;;18.40;87.05;101188.34;5054731;28;20120;-63
2021/07/13 05:48:09;;;;;;;83.13;44.00;;;;;;;18.36;85.91;101186.84;5041834;28;20029;-64
2021/07/13 05:50:35;;;;;;;81.32;44.50;;;;;;;18.37;86.30;101194.78;5062086;28;20357;-61
2021/07/13 05:53:02;;;;;;;82.55;43.05;;;;;;;18.44;86.84;101196.06;5073984;28;20025;-64
2021/07/13 05:55:27;;;;;;;78.32;42.50;;;;;;;18.45;85.89;101191.53;5068735;28;20036;-64
2021/07/13 05:57:53;;;;;;;77.53;42.00;;;;;;;18.51;85.80;101199.13;5073362;28;20025;-63
2021/07/13 06:00:19;;;;;;;73.68;42.42;;;;;;;18.51;85.78;101191.94;5073522;28;20029;-62
2021/07/13 06:02:45;;;;;;;72.97;41.78;;;;;;;18.58;85.29;101191.50;5073134;28;20039;-63
2021/07/13 06:05:11;;;;;;;65.32;39.30;;;;;;;18.65;84.90;101195.44;5069502;28;20025;-63
2021/07/13 06:07:44;;;;;;;70.32;40.58;;;;;;;18.69;84.32;101196.94;5053521;28;20138;-61
2021/07/13 06:10:10;;;;;;;71.78;41.08;;;;;;;18.72;84.24;101199.41;5065288;28;20036;-63
2021/07/13 06:12:35;;;;;;;74.57;40.80;;;;;;;18.70;84.50;101190.59;5064935;28;20021;-59
2021/07/13 06:15:00;;;;;;;69.32;41.15;;;;;;;18.73;84.16;101201.09;5058878;28;20048;-60
2021/07/13 06:17:26;;;;;;;68.07;39.85;;;;;;;18.77;83.93;101182.94;5065148;28;20024;-61
2021/07/13 06:19:51;;;;;;;72.47;41.38;;;;;;;18.82;84.07;101195.06;5056519;28;20021;-59
2021/07/13 06:22:16;;;;;;;66.50;39.97;;;;;;;18.91;83.53;101195.38;5055970;28;20121;-59
2021/07/13 06:24:42;;;;;;;72.30;40.65;;;;;;;18.92;83.35;101197.09;5060150;28;20024;-61
2021/07/13 06:27:07;;;;;;;67.43;41.28;;;;;;;18.93;83.78;101198.81;5059218;28;20055;-60
2021/07/13 06:29:32;;;;;;;71.05;40.45;;;;;;;18.81;83.35;101208.56;5064022;28;20025;-63
2021/07/13 06:31:57;;;;;;;70.68;42.15;;;;;;;18.81;83.85;101203.22;5064261;28;20067;-59
2021/07/13 06:34:23;;;;;;;65.13;37.38;;;;;;;18.81;83.14;101192.47;5065716;28;20116;-59
2021/07/13 06:36:48;;;;;;;58.33;36.83;;;;;;;18.90;83.20;101194.53;5053773;28;20488;-60
2021/07/13 06:39:14;;;;;;;60.30;37.10;;;;;;;18.90;83.08;101201.72;5059307;28;20107;-62
2021/07/13 06:41:39;;;;;;;64.63;40.35;;;;;;;18.95;83.40;101207.59;5066404;28;20020;-60
2021/07/13 06:44:05;;;;;;;57.30;35.83;;;;;;;19.00;83.28;101205.41;5063436;28;20127;-63
2021/07/13 06:46:32;;;;;;;61.88;38.33;;;;;;;18.98;82.85;101215.44;5064398;28;20040;-62
2021/07/13 06:48:57;;;;;;;60.25;38.38;;;;;;;18.98;83.42;101205.53;5061355;28;20506;-62
2021/07/13 06:51:23;;;;;;;55.80;34.90;;;;;;;19.03;82.44;101215.06;5059053;28;20025;-64
2021/07/13 06:53:48;;;;;;;54.92;36.20;;;;;;;19.05;82.68;101213.97;5072649;28;20833;-60
2021/07/13 06:56:13;;;;;;;50.17;32.75;;;;;;;19.11;81.91;101210.84;5072393;28;20090;-63
2021/07/13 06:58:39;;;;;;;50.22;32.75;;;;;;;19.16;81.92;101223.94;5067428;28;20051;-63
2021/07/13 07:01:04;;;;;;;51.38;34.83;;;;;;;19.07;81.12;101213.88;5062606;28;20023;-62
2021/07/13 07:03:29;;;;;;;51.33;33.17;;;;;;;19.09;81.60;101214.63;5070122;28;20108;-63
2021/07/13 07:05:54;;;;;;;49.08;32.90;;;;;;;19.09;80.95;101219.97;5065462;28;20031;-64
2021/07/13 07:08:20;;;;;;;49.05;32.47;;;;;;;19.15;81.63;101224.88;5052295;28;20451;-63
2021/07/13 07:10:45;;;;;;;51.95;34.28;;;;;;;19.12;81.66;101220.59;5052523;28;20629;-60
2021/07/13 07:13:10;;;;;;;53.22;34.20;;;;;;;19.14;81.41;101225.84;5052083;28;20040;-63
2021/07/13 07:15:36;;;;;;;54.53;35.10;;;;;;;19.16;80.70;101216.72;5060032;28;20033;-62
2021/07/13 07:18:01;;;;;;;55.15;33.25;;;;;;;19.19;81.01;101225.53;5066334;28;20464;-62
2021/07/13 07:20:28;;;;;;;50.50;33.35;;;;;;;19.12;81.26;101219.78;5058951;28;20103;-62
2021/07/13 07:22:55;;;;;;;52.97;35.03;;;;;;;19.03;81.72;101215.94;5060994;28;20487;-62
2021/07/13 07:25:21;;;;;;;58.13;35.55;;;;;;;19.08;82.17;101216.44;5065594;28;20067;-63
2021/07/13 07:27:47;;;;;;;55.05;36.80;;;;;;;19.05;81.99;101222.03;5061622;28;20060;-62
2021/07/13 07:30:14;;;;;;;59.55;36.65;;;;;;;18.93;82.20;101231.84;5060513;28;20056;-63
2021/07/13 07:32:41;;;;;;;62.70;37.80;;;;;;;18.96;82.83;101228.09;5065919;28;20484;-64
2021/07/13 07:35:08;;;;;;;58.13;35.10;;;;;;;19.02;82.30;101226.78;5056193;28;20047;-61
2021/07/13 07:37:34;;;;;;;59.85;35.30;;;;;;;19.06;82.25;101234.50;5063198;28;20480;-60
2021/07/13 07:40:00;;;;;;;61.28;36.70;;;;;;;19.13;81.63;101226.81;5070976;28;20090;-62
2021/07/13 07:42:25;;;;;;;53.72;34.08;;;;;;;19.22;81.08;101226.16;5069297;28;20028;-63
2021/07/13 07:44:50;;;;;;;55.45;34.40;;;;;;;19.38;80.70;101227.69;5060080;28;20033;-61
2021/07/13 07:47:16;;;;;;;57.22;34.95;;;;;;;19.43;80.15;101231.72;5060787;28;20105;-63
2021/07/13 07:49:41;;;;;;;50.63;32.58;;;;;;;19.43;79.86;101231.72;5056001;28;20369;-62
2021/07/13 07:52:07;;;;;;;49.40;33.22;;;;;;;19.47;79.88;101235.03;5063602;28;20025;-63
2021/07/13 07:54:32;;;;;;;51.13;33.17;;;;;;;19.47;79.76;101235.88;5051610;28;20025;-61
2021/07/13 07:56:58;;;;;;;51.67;33.75;;;;;;;19.42;78.97;101238.03;5063594;28;20055;-63
2021/07/13 07:59:23;;;;;;;51.28;33.45;;;;;;;19.37;79.06;101245.59;5070560;28;20032;-62
2021/07/13 08:01:48;;;;;;;55.63;34.22;;;;;;;19.36;80.28;101238.53;5060137;28;20391;-62
2021/07/13 08:04:14;;;;;;;64.95;38.55;;;;;;;19.40;80.85;101237.31;5069923;28;20078;-64
2021/07/13 08:06:39;;;;;;;63.70;38.20;;;;;;;19.40;80.03;101244.50;5058157;28;20066;-60
2021/07/13 08:09:07;;;;;;;63.45;38.38;;;;;;;19.42;80.03;101240.72;5068144;28;20120;-64
2021/07/13 08:11:33;;;;;;;62.30;36.63;;;;;;;19.47;79.86;101238.56;5069335;28;20483;-61
2021/07/13 08:14:00;;;;;;;59.58;36.80;;;;;;;19.42;79.04;101240.72;5073752;28;20039;-63
2021/07/13 08:16:26;;;;;;;58.20;36.72;;;;;;;19.45;79.91;101234.28;5060521;28;20051;-62
2021/07/13 08:18:52;;;;;;;62.38;37.80;;;;;;;19.46;79.91;101231.50;5061127;28;20024;-60
2021/07/13 08:21:19;;;;;;;61.10;35.53;;;;;;;19.47;79.43;101240.41;5060939;28;20028;-59
2021/07/13 08:23:45;;;;;;;53.03;33.35;;;;;;;19.50;79.40;101240.16;5054384;28;20583;-63
2021/07/13 08:26:11;;;;;;;56.38;35.60;;;;;;;19.46;79.63;101247.59;5064885;28;20059;-60
2021/07/13 08:28:36;;;;;;;51.88;32.60;;;;;;;19.42;79.53;101251.47;5056447;28;20417;-61
2021/07/13 08:31:01;;;;;;;54.50;34.00;;;;;;;19.46;79.59;101247.59;5057433;28;20090;-61
2021/07/13 08:33:27;;;;;;;51.92;33.45;;;;;;;19.45;79.93;101245.88;5055618;28;20099;-60
2021/07/13 08:35:52;;;;;;;50.83;31.60;;;;;;;19.49;79.71;101241.16;5055303;28;20032;-62
2021/07/13 08:38:17;;;;;;;53.35;31.95;;;;;;;19.54;79.32;101243.47;5072804;28;20462;-64
2021/07/13 08:40:43;;;;;;;52.45;32.42;;;;;;;19.56;78.60;101246.91;5074842;28;20024;-63
2021/07/13 08:43:08;;;;;;;48.08;30.70;;;;;;;19.57;78.97;101243.25;5070870;28;20064;-64
2021/07/13 08:45:33;;;;;;;48.42;30.75;;;;;;;19.46;79.04;101242.22;5053923;28;20032;-63
2021/07/13 08:47:59;;;;;;;49.47;30.65;;;;;;;19.43;78.68;101247.81;5055049;28;20123;-63
2021/07/13 08:50:24;;;;;;;43.90;28.50;;;;;;;19.57;78.51;101246.78;5068159;28;20029;-64
2021/07/13 08:52:50;;;;;;;42.75;28.52;;;;;;;19.64;78.58;101245.34;5061323;28;20040;-63
2021/07/13 08:55:16;;;;;;;45.67;29.73;;;;;;;19.63;78.17;101246.31;5055097;28;20357;-62
2021/07/13 08:57:42;;;;;;;46.17;29.23;;;;;;;19.52;79.05;101242.75;5056093;28;20044;-62
2021/07/13 09:00:12;;;;;;;51.03;30.05;;;;;;;19.46;79.52;101247.59;5057119;28;20047;-64
2021/07/13 09:03:11;;;;;;;46.05;30.52;;;;;;;19.60;79.05;101249.25;5056247;28;20028;-63
2021/07/13 09:05:54;;;;;;;51.00;31.75;;;;;;;19.74;78.15;101258.06;5054214;28;20033;-62
2021/07/13 09:08:28;;;;;;;46.72;29.92;;;;;;;19.78;77.55;101248.78;5054398;28;20047;-64
2021/07/13 09:11:22;;;;;;;49.45;29.15;;;;;;;19.78;77.54;101251.47;5054096;28;20377;-64
2021/07/13 09:13:50;;;;;;;51.05;30.15;;;;;;;19.75;77.23;101247.19;5056837;28;20036;-64
2021/07/13 09:16:30;;;;;;;46.67;29.88;;;;;;;19.90;77.23;101247.03;5055348;28;20439;-63
2021/07/13 09:18:58;;;;;;;46.60;30.35;;;;;;;19.88;77.17;101249.81;5054052;28;20052;-64
2021/07/13 09:21:26;;;;;;;44.78;29.67;;;;;;;19.93;77.06;101244.94;5073563;28;20365;-63
2021/07/13 09:24:21;;;;;;;48.92;30.63;;;;;;;19.73;76.39;101259.91;5072820;28;20111;-64
2021/07/13 09:27:00;;;;;;;46.28;29.00;;;;;;;19.84;77.14;101248.34;5074064;28;20032;-64
2021/07/13 09:29:28;;;;;;;44.80;28.55;;;;;;;20.01;77.03;101249.69;5058204;28;20419;-61
2021/07/13 09:31:54;;;;;;;51.83;30.50;;;;;;;20.12;76.53;101244.34;5055530;28;20067;-65
2021/07/13 09:34:20;;;;;;;43.95;29.27;;;;;;;20.20;76.62;101254.47;5053536;28;20040;-64
2021/07/13 09:36:53;;;;;;;43.00;28.83;;;;;;;20.37;75.33;101249.59;5055062;28;20033;-64
2021/07/13 09:39:25;;;;;;;43.28;29.50;;;;;;;20.39;75.90;101239.59;5054218;28;20021;-62
2021/07/13 09:41:52;;;;;;;44.25;29.00;;;;;;;20.46;74.11;101251.53;5058676;28;20033;-62
2021/07/13 09:44:22;;;;;;;45.15;28.65;;;;;;;20.35;75.51;101256.94;5063698;28;20025;-64
2021/07/13 09:46:47;;;;;;;46.08;30.23;;;;;;;20.29;75.32;101252.91;5072415;28;20102;-64
2021/07/13 09:49:27;;;;;;;44.13;29.55;;;;;;;20.62;73.73;101249.31;5049133;28;20471;-63
2021/07/13 09:51:57;;;;;;;44.25;29.27;;;;;;;20.63;73.62;101248.34;5056213;28;20033;-64
2021/07/13 09:54:26;;;;;;;43.17;28.55;;;;;;;20.62;74.10;101257.41;5057840;28;20050;-63
2021/07/13 09:56:52;;;;;;;46.58;30.00;;;;;;;20.40;74.27;101246.69;5066867;28;20114;-63
2021/07/13 09:59:17;;;;;;;41.35;29.17;;;;;;;20.34;74.16;101248.00;5068960;28;20049;-63
2021/07/13 10:01:43;;;;;;;46.28;29.80;;;;;;;20.51;74.50;101248.50;5072903;28;20036;-61
2021/07/13 10:04:08;;;;;;;44.35;29.13;;;;;;;20.65;73.55;101250.91;5073558;28;20071;-63
2021/07/13 10:06:34;;;;;;;42.42;28.38;;;;;;;20.70;72.58;101253.25;5070420;28;20028;-65
2021/07/13 10:09:00;;;;;;;42.22;28.05;;;;;;;20.79;73.03;101255.22;5062481;28;20091;-62
2021/07/13 10:11:30;;;;;;;40.65;28.05;;;;;;;20.91;71.93;101254.22;5063898;28;20025;-64
2021/07/13 10:13:58;;;;;;;41.97;27.60;;;;;;;20.89;71.89;101258.00;5053335;28;20029;-63
2021/07/13 10:16:24;;;;;;;39.33;26.98;;;;;;;20.76;71.27;101258.16;5054394;28;20086;-63
2021/07/13 10:18:51;;;;;;;40.25;26.83;;;;;;;20.76;72.27;101261.69;5055678;28;20071;-63
2021/07/13 10:21:17;;;;;;;45.65;27.65;;;;;;;20.75;72.05;101264.53;5052333;28;20430;-63
2021/07/13 10:23:45;;;;;;;40.13;28.30;;;;;;;20.71;72.00;101269.28;5054530;28;20025;-61
2021/07/13 10:26:11;;;;;;;37.80;26.63;;;;;;;20.71;72.22;101263.06;5059308;28;20029;-64
2021/07/13 10:28:37;;;;;;;43.05;26.10;;;;;;;20.84;72.65;101268.31;5053917;28;20075;-62
2021/07/13 10:31:03;;;;;;;39.67;26.60;;;;;;;21.03;73.71;101283.81;5068456;28;20529;-64
2021/07/13 10:33:37;;;;;;;38.83;26.23;;;;;;;21.08;71.04;101273.50;5073002;28;20111;-64
2021/07/13 10:36:35;;;;;;;38.40;26.63;;;;;;;20.88;71.81;101267.06;5070120;28;20055;-64
2021/07/13 10:39:31;;;;;;;40.00;26.00;;;;;;;20.92;71.61;101268.50;5068647;28;20025;-61
2021/07/13 10:42:00;;;;;;;36.17;24.38;;;;;;;21.04;71.64;101266.66;5066702;28;20032;-62
2021/07/13 10:44:46;;;;;;;36.47;24.23;;;;;;;21.27;71.45;101276.38;5061440;28;20532;-62
2021/07/13 10:47:53;;;;;;;37.60;24.52;;;;;;;21.40;70.24;101272.66;5064602;28;20443;-59
2021/07/13 10:50:18;;;;;;;36.00;21.98;;;;;;;21.36;70.01;101282.81;5066094;28;20392;-62
2021/07/13 10:52:52;;;;;;;39.40;23.50;;;;;;;21.22;70.84;101286.66;5066528;28;20459;-61
2021/07/13 10:55:33;;;;;;;37.50;23.10;;;;;;;20.99;69.68;101295.81;5068238;28;20298;-63
2021/07/13 10:58:10;;;;;;;35.55;23.00;;;;;;;20.61;71.71;101293.38;5063835;28;20036;-63
2021/07/13 11:00:50;;;;;;;36.67;23.10;;;;;;;20.60;73.04;101297.03;5053342;28;20037;-61
2021/07/13 11:03:45;;;;;;;36.13;22.85;;;;;;;20.36;72.60;101293.59;5053887;28;20029;-63
2021/07/13 11:06:37;;;;;;;34.55;22.90;;;;;;;20.46;72.64;101291.88;5055667;28;20063;-61
2021/07/13 11:09:17;;;;;;;37.67;24.08;;;;;;;20.50;72.72;101303.28;5062675;28;20044;-62
2021/07/13 11:11:42;;;;;;;39.10;24.70;;;;;;;20.49;72.24;101299.75;5065922;28;20056;-61